createdAt,value
2019-06-26T00:01:09.629Z,5.13
2019-06-26T00:03:39.700Z,3.80
2019-06-26T00:06:09.622Z,7.57
2019-06-26T00:08:39.689Z,5.57
2019-06-26T00:11:09.906Z,4.23
2019-06-26T00:13:39.892Z,6.53
2019-06-26T00:16:09.958Z,4.20
2019-06-26T00:18:39.695Z,4.27
2019-06-26T00:21:09.537Z,5.07
2019-06-26T00:23:39.567Z,4.27
2019-06-26T00:26:09.508Z,3.67
2019-06-26T00:28:39.382Z,3.33
2019-06-26T00:31:09.043Z,3.90
2019-06-26T00:33:39.272Z,3.50
2019-06-26T00:36:09.157Z,6.83
2019-06-26T00:38:40.160Z,3.47
2019-06-26T00:41:10.147Z,5.00
2019-06-26T00:43:42.649Z,6.63
2019-06-26T00:46:16.208Z,3.33
2019-06-26T00:48:48.036Z,5.57
2019-06-26T00:51:19.866Z,7.10
2019-06-26T00:53:50.939Z,3.77
2019-06-26T00:56:22.568Z,3.10
2019-06-26T00:59:14.584Z,4.80
2019-06-26T01:01:44.609Z,3.93
2019-06-26T01:04:25.798Z,6.30
2019-06-26T01:07:00.081Z,4.97
2019-06-26T01:09:31.622Z,3.90
2019-06-26T01:12:03.472Z,3.00
2019-06-26T01:14:40.704Z,5.23
2019-06-26T01:17:12.900Z,6.13
2019-06-26T01:19:44.166Z,4.43
2019-06-26T01:22:16.372Z,4.70
2019-06-26T01:25:47.373Z,5.60
2019-06-26T01:28:18.236Z,4.20
2019-06-26T01:30:49.068Z,3.93
2019-06-26T01:33:19.141Z,3.83
2019-06-26T01:35:49.560Z,3.57
2019-06-26T01:38:19.739Z,4.63
2019-06-26T01:40:52.538Z,4.10
2019-06-26T01:43:24.642Z,5.40
2019-06-26T01:45:54.953Z,3.10
2019-06-26T01:48:27.551Z,4.10
2019-06-26T01:50:57.617Z,2.93
2019-06-26T01:53:38.890Z,3.77
2019-06-26T01:56:10.408Z,4.60
2019-06-26T01:58:41.729Z,3.60
2019-06-26T02:01:14.027Z,3.70
2019-06-26T02:03:47.906Z,4.13
2019-06-26T02:06:19.947Z,4.00
2019-06-26T02:08:52.527Z,2.93
2019-06-26T02:11:24.106Z,3.87
2019-06-26T02:13:56.982Z,4.67
2019-06-26T02:16:28.738Z,4.00
2019-06-26T02:19:06.771Z,2.97
2019-06-26T02:21:38.605Z,2.80
2019-06-26T02:24:11.659Z,5.43
2019-06-26T02:26:45.908Z,3.03
2019-06-26T02:29:16.361Z,3.40
2019-06-26T02:32:10.076Z,3.30
2019-06-26T02:35:02.431Z,3.93
2019-06-26T02:37:43.889Z,3.03
2019-06-26T02:40:31.062Z,4.37
2019-06-26T02:46:21.465Z,3.83
2019-06-26T02:49:35.110Z,3.30
2019-06-26T02:52:08.078Z,4.80
2019-06-26T02:54:39.358Z,3.70
2019-06-26T02:57:09.246Z,3.83
2019-06-26T02:59:42.779Z,4.27
2019-06-26T03:02:13.432Z,4.67
2019-06-26T03:04:44.816Z,5.00
2019-06-26T03:07:25.451Z,4.87
2019-06-26T03:09:56.700Z,4.00
2019-06-26T03:12:26.903Z,7.57
2019-06-26T03:15:09.262Z,4.73
2019-06-26T03:17:54.168Z,9.67
2019-06-26T03:20:26.581Z,6.17
2019-06-26T03:22:58.306Z,4.10
2019-06-26T03:25:30.480Z,4.17
2019-06-26T03:28:01.541Z,3.50
2019-06-26T03:30:32.177Z,37.20
2019-06-26T03:33:06.760Z,5.40
2019-06-26T03:35:40.955Z,5.97
2019-06-26T03:38:12.747Z,9.03
2019-06-26T03:40:43.301Z,7.27
2019-06-26T03:43:15.908Z,6.80
2019-06-26T03:45:58.294Z,6.10
2019-06-26T03:48:27.886Z,5.33
2019-06-26T03:51:05.045Z,5.83
2019-06-26T03:53:39.489Z,6.67
2019-06-26T03:56:11.457Z,4.57
2019-06-26T03:58:45.154Z,4.70
2019-06-26T04:01:18.331Z,4.50
2019-06-26T04:03:51.630Z,6.13
2019-06-26T04:06:24.428Z,7.43
2019-06-26T04:09:09.877Z,7.93
2019-06-26T04:11:43.733Z,8.57
2019-06-26T04:14:15.428Z,5.83
2019-06-26T04:16:48.183Z,6.90
2019-06-26T04:19:18.857Z,4.60
2019-06-26T04:21:50.219Z,8.23
2019-06-26T04:24:22.236Z,8.30
2019-06-26T04:26:55.376Z,4.37
2019-06-26T04:29:26.574Z,4.10
2019-06-26T04:31:57.073Z,4.67
2019-06-26T04:34:30.068Z,5.77
2019-06-26T04:37:05.256Z,9.47
2019-06-26T04:39:41.202Z,4.77
2019-06-26T04:42:11.267Z,7.23
2019-06-26T04:44:45.610Z,7.57
2019-06-26T04:47:20.012Z,4.90
2019-06-26T04:49:51.665Z,6.97
2019-06-26T04:52:23.966Z,4.80
2019-06-26T04:54:57.256Z,5.40
2019-06-26T04:57:28.626Z,6.70
2019-06-26T05:00:02.866Z,7.33
2019-06-26T05:02:52.517Z,14.23
2019-06-26T05:05:39.375Z,7.13
2019-06-26T05:08:07.531Z,6.40
2019-06-26T05:10:37.937Z,9.80
2019-06-26T05:13:11.745Z,12.27
2019-06-26T05:15:56.041Z,10.70
2019-06-26T05:21:25.898Z,6.67
2019-06-26T05:24:03.425Z,5.80
2019-06-26T05:26:43.118Z,5.23
2019-06-26T05:29:21.814Z,6.27
2019-06-26T05:31:53.089Z,7.20
2019-06-26T05:34:24.562Z,8.10
2019-06-26T05:37:08.724Z,6.57
2019-06-26T05:39:42.690Z,5.03
2019-06-26T05:42:22.641Z,6.97
2019-06-26T05:45:00.252Z,6.17
2019-06-26T05:47:50.026Z,7.60
2019-06-26T05:50:22.010Z,5.37
2019-06-26T05:52:54.804Z,8.93
2019-06-26T05:55:26.786Z,17.47
2019-06-26T05:57:59.431Z,8.60
2019-06-26T06:00:45.775Z,6.47
2019-06-26T06:03:18.852Z,5.00
2019-06-26T06:05:49.699Z,5.90
2019-06-26T06:08:27.956Z,6.10
2019-06-26T06:11:04.837Z,6.83
2019-06-26T06:13:42.043Z,6.33
2019-06-26T06:16:17.674Z,6.90
2019-06-26T06:18:51.340Z,4.90
2019-06-26T06:21:22.722Z,6.23
2019-06-26T06:24:02.010Z,9.57
2019-06-26T06:26:35.761Z,7.17
2019-06-26T06:29:07.504Z,9.83
2019-06-26T06:31:40.860Z,6.83
2019-06-26T06:34:14.580Z,6.37
2019-06-26T06:36:51.125Z,9.47
2019-06-26T06:39:29.115Z,9.30
2019-06-26T06:42:02.314Z,8.07
2019-06-26T06:44:35.630Z,7.23
2019-06-26T06:47:13.667Z,19.27
2019-06-26T06:49:48.196Z,12.33
2019-06-26T06:52:19.146Z,8.50
2019-06-26T06:55:05.918Z,6.50
2019-06-26T07:00:36.726Z,6.93
2019-06-26T07:03:31.546Z,9.13
2019-06-26T07:06:05.324Z,11.43
2019-06-26T07:08:42.142Z,7.83
2019-06-26T07:11:16.818Z,7.00
2019-06-26T07:13:48.315Z,13.70
2019-06-26T07:16:28.898Z,6.33
2019-06-26T07:19:01.260Z,9.83
2019-06-26T07:21:35.241Z,8.37
2019-06-26T07:24:06.945Z,10.43
2019-06-26T07:27:10.856Z,12.23
2019-06-26T07:29:45.885Z,6.67
2019-06-26T07:32:17.641Z,7.60
2019-06-26T07:34:51.282Z,22.77
2019-06-26T07:37:23.677Z,18.33
2019-06-26T07:40:04.382Z,11.10
2019-06-26T07:42:36.329Z,39.47
2019-06-26T07:45:10.252Z,12.53
2019-06-26T07:47:44.341Z,15.90
2019-06-26T07:50:25.461Z,9.60
2019-06-26T07:52:57.846Z,10.33
2019-06-26T07:55:29.629Z,10.57
2019-06-26T07:58:00.122Z,16.27
2019-06-26T08:00:32.417Z,13.13
2019-06-26T08:03:04.536Z,10.77
2019-06-26T08:05:55.607Z,11.63
2019-06-26T08:08:25.621Z,9.03
2019-06-26T08:10:57.390Z,8.40
2019-06-26T08:13:34.290Z,9.80
2019-06-26T08:16:06.380Z,8.67
2019-06-26T08:18:45.587Z,5.73
2019-06-26T08:21:18.266Z,8.77
2019-06-26T08:23:49.050Z,9.97
2019-06-26T08:29:10.665Z,25.03
2019-06-26T08:31:43.140Z,14.03
2019-06-26T08:34:15.244Z,23.00
2019-06-26T08:36:45.746Z,9.00
2019-06-26T08:39:26.656Z,5.70
2019-06-26T08:41:59.396Z,24.53
2019-06-26T08:44:31.469Z,12.93
2019-06-26T08:47:03.421Z,6.23
2019-06-26T08:49:44.546Z,12.43
2019-06-26T08:52:15.622Z,5.00
2019-06-26T08:54:45.409Z,8.60
2019-06-26T08:57:27.660Z,7.10
2019-06-26T08:59:59.392Z,7.47
2019-06-26T09:02:34.264Z,10.63
2019-06-26T09:05:13.680Z,10.53
2019-06-26T09:07:43.825Z,5.50
2019-06-26T09:10:14.554Z,8.73
2019-06-26T09:12:46.445Z,6.33
2019-06-26T09:15:22.172Z,10.70
2019-06-26T09:18:06.062Z,8.03
2019-06-26T09:20:40.054Z,5.43
2019-06-26T09:23:09.883Z,8.27
2019-06-26T09:25:41.752Z,8.17
2019-06-26T09:28:14.146Z,8.40
2019-06-26T09:30:43.841Z,7.43
2019-06-26T09:33:13.461Z,9.43
2019-06-26T09:35:43.194Z,5.90
2019-06-26T09:38:12.856Z,11.20
2019-06-26T09:40:42.590Z,7.23
2019-06-26T09:43:12.478Z,13.20
2019-06-26T09:45:42.226Z,6.40
2019-06-26T09:48:11.883Z,6.53
2019-06-26T09:50:41.690Z,9.63
2019-06-26T09:53:11.550Z,12.00
2019-06-26T09:55:41.153Z,9.53
2019-06-26T09:58:13.382Z,7.73
2019-06-26T10:00:42.299Z,6.83
2019-06-26T10:03:12.042Z,7.40
2019-06-26T10:05:42.200Z,9.37
2019-06-26T10:08:14.314Z,9.20
2019-06-26T10:10:43.996Z,16.37
2019-06-26T10:13:14.089Z,24.40
2019-06-26T10:15:43.843Z,11.27
2019-06-26T10:18:13.642Z,9.43
2019-06-26T10:20:43.350Z,19.50
2019-06-26T10:23:13.154Z,24.03
2019-06-26T10:25:42.793Z,9.83
2019-06-26T10:28:12.528Z,9.43
2019-06-26T10:30:42.314Z,5.43
2019-06-26T10:33:12.130Z,7.83
2019-06-26T10:35:41.984Z,10.37
2019-06-26T10:38:11.595Z,12.53
2019-06-26T10:40:41.315Z,11.43
2019-06-26T10:43:11.086Z,9.27
2019-06-26T10:45:43.193Z,6.57
2019-06-26T10:48:12.870Z,6.27
2019-06-26T10:50:49.930Z,9.37
2019-06-26T10:53:14.086Z,5.33
2019-06-26T10:55:43.891Z,9.03
2019-06-26T10:58:13.712Z,6.40
2019-06-26T11:00:43.717Z,5.57
2019-06-26T11:03:13.454Z,5.73
2019-06-26T11:05:43.414Z,5.10
2019-06-26T11:08:13.069Z,5.70
2019-06-26T11:10:42.737Z,9.33
2019-06-26T11:13:12.551Z,6.53
2019-06-26T11:15:42.318Z,8.07
2019-06-26T11:18:12.273Z,6.77
2019-06-26T11:20:42.065Z,6.27
2019-06-26T11:23:12.793Z,6.87
2019-06-26T11:25:44.475Z,8.47
2019-06-26T11:28:14.172Z,4.60
2019-06-26T11:30:44.200Z,5.70
2019-06-26T11:33:13.872Z,6.33
2019-06-26T11:35:43.694Z,5.30
2019-06-26T11:38:13.336Z,8.77
2019-06-26T11:40:42.897Z,4.63
2019-06-26T11:43:12.811Z,4.23
2019-06-26T11:45:42.745Z,11.90
2019-06-26T11:48:12.708Z,5.80
2019-06-26T11:50:42.579Z,6.07
2019-06-26T11:53:12.263Z,4.93
2019-06-26T11:55:41.828Z,5.93
2019-06-26T11:58:11.780Z,4.70
2019-06-26T12:00:41.859Z,5.20
2019-06-26T12:03:13.334Z,5.30
2019-06-26T12:05:43.439Z,7.40
2019-06-26T12:08:13.264Z,6.73
2019-06-26T12:10:42.920Z,4.47
2019-06-26T12:13:12.839Z,5.33
2019-06-26T12:15:42.450Z,15.33
2019-06-26T12:18:12.314Z,18.10
2019-06-26T12:20:42.148Z,7.03
2019-06-26T12:23:11.722Z,46.43
2019-06-26T12:25:41.972Z,28.43
2019-06-26T12:28:11.900Z,10.10
2019-06-26T12:30:41.631Z,20.30
2019-06-26T12:33:11.433Z,24.90
2019-06-26T12:35:41.223Z,18.87
2019-06-26T12:38:15.087Z,23.37
2019-06-26T12:40:59.734Z,10.13
2019-06-26T12:43:32.708Z,5.87
2019-06-26T12:46:05.273Z,5.37
2019-06-26T12:48:45.052Z,4.00
2019-06-26T12:51:20.436Z,6.80
2019-06-26T12:53:50.649Z,3.43
2019-06-26T12:56:29.893Z,4.27
2019-06-26T12:59:01.964Z,6.00
2019-06-26T13:01:42.419Z,5.47
2019-06-26T13:04:26.576Z,4.10
2019-06-26T13:07:02.888Z,3.07
2019-06-26T13:09:36.099Z,3.83
2019-06-26T13:12:18.475Z,3.87
2019-06-26T13:14:58.760Z,8.17
2019-06-26T13:17:36.896Z,22.03
2019-06-26T13:20:11.576Z,19.83
2019-06-26T13:22:51.361Z,14.93
2019-06-26T13:25:28.655Z,15.53
2019-06-26T13:27:59.931Z,7.13
2019-06-26T13:30:39.314Z,4.90
2019-06-26T13:33:11.599Z,17.17
2019-06-26T13:35:46.545Z,15.80
2019-06-26T13:38:21.033Z,4.63
2019-06-26T13:40:57.492Z,4.20
2019-06-26T13:46:22.612Z,3.00
2019-06-26T13:48:56.297Z,4.27
2019-06-26T13:51:28.145Z,5.63
2019-06-26T13:54:00.794Z,4.03
2019-06-26T13:56:32.262Z,3.97
2019-06-26T13:59:07.525Z,2.97
2019-06-26T14:01:45.083Z,4.60
2019-06-26T14:04:15.633Z,2.57
2019-06-26T14:06:47.645Z,4.10
2019-06-26T14:09:22.741Z,3.63
2019-06-26T14:11:57.142Z,3.67
2019-06-26T14:14:40.895Z,6.17
2019-06-26T14:17:05.351Z,3.23
2019-06-26T14:19:43.564Z,3.33
2019-06-26T14:22:26.006Z,6.57
2019-06-26T14:24:56.232Z,4.07
2019-06-26T14:27:28.957Z,3.97
2019-06-26T14:30:01.392Z,3.73
2019-06-26T14:32:37.647Z,6.47
2019-06-26T14:35:09.773Z,3.17
2019-06-26T14:37:40.445Z,3.27
2019-06-26T14:40:15.443Z,4.93
2019-06-26T14:42:46.752Z,8.13
2019-06-26T14:45:20.203Z,4.50
2019-06-26T14:47:50.972Z,4.80
2019-06-26T14:50:23.700Z,4.13
2019-06-26T14:52:55.807Z,3.83
2019-06-26T14:55:30.624Z,3.50
2019-06-26T14:58:06.830Z,3.97
2019-06-26T15:00:44.042Z,5.80
2019-06-26T15:03:16.084Z,4.33
2019-06-26T15:05:46.338Z,5.07
2019-06-26T15:08:20.693Z,4.00
2019-06-26T15:10:55.853Z,5.00
2019-06-26T15:13:30.749Z,8.47
2019-06-26T15:16:08.621Z,6.57
2019-06-26T15:18:38.663Z,6.57
2019-06-26T15:21:14.024Z,4.33
2019-06-26T15:23:46.225Z,6.00
2019-06-26T15:26:17.431Z,5.33
2019-06-26T15:28:48.907Z,5.03
2019-06-26T15:31:22.394Z,4.77
2019-06-26T15:33:52.057Z,4.40
2019-06-26T15:36:24.809Z,5.23
2019-06-26T15:38:59.328Z,5.03
2019-06-26T15:41:34.845Z,5.77
2019-06-26T15:44:06.755Z,4.03
2019-06-26T15:46:38.951Z,3.87
2019-06-26T15:49:09.033Z,4.53
2019-06-26T15:51:41.636Z,4.67
2019-06-26T15:54:13.177Z,5.33
2019-06-26T15:56:42.967Z,2.77
2019-06-26T15:59:12.783Z,2.40
2019-06-26T16:01:42.417Z,4.90
2019-06-26T16:04:12.386Z,4.97
2019-06-26T16:06:42.196Z,5.50
2019-06-26T16:09:12.071Z,4.90
2019-06-26T16:11:41.733Z,7.07
2019-06-26T16:14:11.367Z,6.03
2019-06-26T16:16:42.986Z,3.83
2019-06-26T16:19:15.587Z,4.00
2019-06-26T16:21:45.296Z,4.67
2019-06-26T16:24:14.923Z,6.60
2019-06-26T16:26:44.730Z,6.27
2019-06-26T16:29:14.446Z,5.07
2019-06-26T16:31:44.116Z,7.23
2019-06-26T16:34:13.696Z,5.67
2019-06-26T16:36:43.467Z,5.17
2019-06-26T16:39:13.451Z,4.63
2019-06-26T16:41:43.153Z,6.07
2019-06-26T16:44:12.857Z,6.20
2019-06-26T16:46:42.423Z,7.80
2019-06-26T16:49:12.287Z,5.60
2019-06-26T16:51:42.087Z,6.87
2019-06-26T16:54:11.689Z,7.87
2019-06-26T16:56:41.502Z,7.70
2019-06-26T16:59:11.227Z,6.83
2019-06-26T17:01:40.920Z,4.97
2019-06-26T17:04:10.495Z,5.60
2019-06-26T17:06:40.285Z,4.47
2019-06-26T17:09:09.880Z,5.77
2019-06-26T17:11:39.713Z,6.07
2019-06-26T17:14:09.346Z,4.13
2019-06-26T17:16:39.099Z,6.10
2019-06-26T17:19:08.876Z,5.80
2019-06-26T17:21:38.688Z,5.60
2019-06-26T17:24:08.329Z,4.83
2019-06-26T17:26:38.096Z,4.23
2019-06-26T17:29:07.752Z,6.57
2019-06-26T17:31:37.344Z,5.67
2019-06-26T17:34:07.099Z,9.50
2019-06-26T17:36:36.857Z,5.90
2019-06-26T17:39:07.474Z,4.50
2019-06-26T17:41:37.293Z,4.83
2019-06-26T17:44:07.028Z,4.63
2019-06-26T17:46:36.607Z,9.17
2019-06-26T17:49:06.432Z,5.90
2019-06-26T17:51:36.258Z,6.17
2019-06-26T17:54:05.832Z,7.47
2019-06-26T17:56:35.822Z,4.40
2019-06-26T17:59:05.951Z,5.10
2019-06-26T18:01:35.841Z,3.70
2019-06-26T18:04:06.140Z,5.03
2019-06-26T18:06:35.855Z,4.23
2019-06-26T18:09:09.961Z,4.63
2019-06-26T18:11:39.464Z,3.97
2019-06-26T18:14:09.478Z,5.73
2019-06-26T18:16:39.055Z,5.03
2019-06-26T18:19:08.868Z,5.70
2019-06-26T18:21:38.725Z,6.70
2019-06-26T18:24:08.327Z,7.77
2019-06-26T18:26:38.023Z,9.10
2019-06-26T18:29:07.873Z,9.80
2019-06-26T18:31:37.911Z,7.93
2019-06-26T18:34:07.685Z,8.97
2019-06-26T18:36:37.441Z,8.93
2019-06-26T18:39:08.691Z,11.33
2019-06-26T18:41:38.464Z,7.00
2019-06-26T18:44:07.973Z,13.33
2019-06-26T18:46:37.671Z,12.43
2019-06-26T18:49:09.894Z,13.83
2019-06-26T18:51:48.371Z,14.13
2019-06-26T18:57:14.441Z,13.60
2019-06-26T18:59:46.484Z,14.20
2019-06-26T19:02:16.612Z,17.17
2019-06-26T19:04:47.801Z,17.03
2019-06-26T19:07:20.008Z,14.73
2019-06-26T19:09:53.368Z,12.63
2019-06-26T19:12:24.045Z,13.67
2019-06-26T19:14:56.728Z,14.87
2019-06-26T19:17:28.025Z,19.47
2019-06-26T19:19:59.746Z,16.13
2019-06-26T19:22:31.524Z,20.80
2019-06-26T19:25:21.283Z,18.63
2019-06-26T19:27:51.392Z,20.07
2019-06-26T19:30:23.010Z,18.97
2019-06-26T19:32:52.956Z,14.23
2019-06-26T19:35:22.590Z,18.50
2019-06-26T19:37:52.525Z,17.27
2019-06-26T19:40:24.182Z,16.43
2019-06-26T19:42:54.308Z,15.70
2019-06-26T19:45:24.346Z,19.20
2019-06-26T19:47:53.977Z,21.70
2019-06-26T19:50:24.258Z,17.80
2019-06-26T19:52:53.872Z,18.70
2019-06-26T19:55:23.388Z,22.17
2019-06-26T19:57:55.319Z,18.20
2019-06-26T20:00:25.224Z,19.90
2019-06-26T20:02:54.894Z,18.43
2019-06-26T20:05:24.897Z,20.97
2019-06-26T20:07:54.522Z,16.57
2019-06-26T20:10:24.361Z,20.73
2019-06-26T20:12:54.516Z,20.80
2019-06-26T20:15:24.313Z,21.80
2019-06-26T20:17:56.533Z,21.30
2019-06-26T20:20:26.420Z,20.93
2019-06-26T20:22:56.271Z,25.33
2019-06-26T20:25:26.023Z,19.30
2019-06-26T20:27:57.983Z,20.53
2019-06-26T20:30:30.617Z,18.07
2019-06-26T20:33:03.696Z,20.77
2019-06-26T20:35:33.614Z,19.73
2019-06-26T20:38:03.383Z,19.63
2019-06-26T20:40:33.720Z,18.50
2019-06-26T20:43:03.812Z,22.47
2019-06-26T20:45:34.929Z,18.20
2019-06-26T20:48:04.775Z,26.13
2019-06-26T20:50:34.684Z,28.07
2019-06-26T20:53:04.795Z,19.23
2019-06-26T20:55:34.698Z,25.07
2019-06-26T20:58:04.665Z,26.47
2019-06-26T21:00:34.654Z,18.93
2019-06-26T21:03:04.759Z,24.47
2019-06-26T21:05:34.683Z,21.07
2019-06-26T21:08:08.937Z,28.47
2019-06-26T21:10:38.511Z,29.63
2019-06-26T21:13:08.620Z,25.70
2019-06-26T21:15:38.434Z,24.03
2019-06-26T21:18:08.141Z,26.73
2019-06-26T21:20:37.807Z,25.87
2019-06-26T21:23:17.822Z,28.37
2019-06-26T21:25:38.844Z,30.97
2019-06-26T21:28:08.978Z,23.83
2019-06-26T21:30:38.678Z,26.63
2019-06-26T21:33:08.323Z,29.27
2019-06-26T21:35:38.196Z,31.23
2019-06-26T21:38:07.820Z,23.67
2019-06-26T21:40:37.375Z,20.37
2019-06-26T21:43:07.314Z,28.93
2019-06-26T21:45:36.965Z,29.50
2019-06-26T21:48:06.507Z,26.00
2019-06-26T21:50:36.563Z,23.57
2019-06-26T21:53:06.160Z,29.30
2019-06-26T21:55:35.915Z,32.43
2019-06-26T21:58:06.001Z,26.90
2019-06-26T22:00:36.757Z,21.80
2019-06-26T22:03:06.608Z,23.47
2019-06-26T22:05:37.859Z,24.20
2019-06-26T22:08:07.760Z,27.03
2019-06-26T22:10:37.429Z,23.47
2019-06-26T22:13:07.773Z,26.70
2019-06-26T22:15:37.540Z,23.73
2019-06-26T22:18:07.308Z,24.17
2019-06-26T22:20:37.413Z,23.63
2019-06-26T22:23:07.165Z,21.63
2019-06-26T22:25:49.916Z,23.07
2019-06-26T22:28:08.407Z,29.40
2019-06-26T22:30:38.001Z,26.67
2019-06-26T22:33:07.704Z,27.60
2019-06-26T22:35:37.468Z,26.40
2019-06-26T22:38:07.161Z,27.60
2019-06-26T22:40:36.676Z,21.57
2019-06-26T22:43:06.478Z,27.00
2019-06-26T22:45:36.178Z,25.80
2019-06-26T22:48:06.003Z,28.13
2019-06-26T22:50:35.701Z,18.20
2019-06-26T22:53:05.463Z,26.30
2019-06-26T22:55:35.264Z,20.47
2019-06-26T22:58:05.450Z,23.97
2019-06-26T23:00:35.143Z,27.13
2019-06-26T23:03:05.052Z,24.70
2019-06-26T23:05:35.003Z,28.80
2019-06-26T23:08:04.769Z,25.87
2019-06-26T23:10:39.033Z,22.97
2019-06-26T23:13:09.821Z,23.77
2019-06-26T23:15:48.439Z,21.00
2019-06-26T23:18:22.602Z,20.33
2019-06-26T23:20:54.038Z,20.00
2019-06-26T23:23:25.874Z,20.70
2019-06-26T23:25:57.655Z,22.00
2019-06-26T23:28:30.814Z,28.43
2019-06-26T23:31:02.377Z,17.93
2019-06-26T23:33:34.369Z,22.47
2019-06-26T23:36:04.586Z,25.80
2019-06-26T23:38:44.019Z,22.67
2019-06-26T23:41:17.983Z,27.03
2019-06-26T23:43:53.088Z,18.43
2019-06-26T23:46:40.329Z,20.97
2019-06-26T23:49:18.455Z,25.70
2019-06-26T23:51:55.200Z,21.03
2019-06-26T23:54:33.116Z,23.70
2019-06-26T23:57:29.259Z,19.00
